Eems Servant — PBTI — position and weather

sailwx.info

Track history (hours):
 
Tides and Currents Weather Stations Pressure Air Temp Water Temp Dewpoint Dewpoint Depression Visibility Wind Speed Wind Dir Waves Ship Positions

Eems Servant

Last reported at 2014-Sep-01 04:13 UTC. Time now 2014-Sep-01 07:53 UTC.
Position N 51°53' E 005°26'.

Length 87 m; draft 3.5 m.

Type: Cargo ship. MMSI: 246236000.

Date/timePositionNaut miles runAvg speedWind from/ knotsBaromVisibWave heightAir tempDewpointWater temp
2014-Sep-01 04:13N 51°53' E 005°26'3 5.0
2014-Sep-01 03:33N 51°50' E 005°24'4 4.4
2014-Sep-01 02:33N 51°49' E 005°17'6 5.9
2014-Sep-01 01:33N 51°49' E 005°07'6 5.9
2014-Sep-01 00:33N 51°49' E 004°58'6 6.2
2014-Aug-31 23:33N 51°49' E 004°48'5 5.0
2014-Aug-31 22:33N 51°51' E 004°40'7 6.6
2014-Aug-31 21:33N 51°54' E 004°31'2 1.6
2014-Aug-31 20:33N 51°54' E 004°28'4 3.7
2014-Aug-31 19:33N 51°54' E 004°22'10 9.5
2014-Aug-31 18:33N 51°58' E 004°08'1010.0
2014-Aug-31 17:33N 52°01' E 003°53'5 4.7
2014-Aug-31 16:33N 52°04' E 003°47'8 8.3
2014-Aug-31 15:33N 52°12' E 003°47'9 8.7
2014-Aug-31 14:33N 52°21' E 003°49'10 8.3
2014-Aug-31 13:20N 52°31' E 003°51'8 9.5
2014-Aug-31 12:31N 52°38' E 003°54'1110.9
2014-Aug-31 11:30N 52°49' E 003°58'75 9.2
2014-Aug-31 03:17N 53°57' E 004°52'99 9.2
2014-Aug-30 16:31N 55°26' E 006°10'9 8.8
2014-Aug-30 15:33N 55°33' E 006°17'238 9.1
2014-Aug-29 13:27N 59°04' E 009°39'4 1.2
2014-Aug-29 10:31N 59°08' E 009°37'0 0.0
2014-Aug-29 09:04N 59°08' E 009°37'52 4.9
2014-Aug-28 22:33N 58°21' E 008°55'24 8.0
2014-Aug-28 19:33N 58°04' E 008°23'11 7.8
2014-Aug-28 18:08N 57°58' E 008°04'50 7.5
2014-Aug-28 11:25N 58°05' E 006°30'88 2.7
2014-Aug-27 03:09N 57°48' E 009°13'5 8.6
2014-Aug-27 02:33N 57°48' E 009°22'8 8.5
2014-Aug-27 01:33N 57°48' E 009°38'9 8.8
2014-Aug-27 00:33N 57°48' E 009°55'9 9.1
2014-Aug-26 23:33N 57°48' E 010°12'9 9.2
2014-Aug-26 22:33N 57°47' E 010°29'8 8.3
2014-Aug-26 21:33N 57°46' E 010°45'8 8.0
2014-Aug-26 20:33N 57°38' E 010°48'8 8.4
2014-Aug-26 19:33N 57°30' E 010°45'20 8.2
2014-Aug-26 17:08N 57°10' E 010°46'13 8.2
2014-Aug-26 15:30N 56°57' E 010°52'  
2014-Aug-22 23:33N 56°19' E 012°06'8 8.3
2014-Aug-22 22:33N 56°14' E 012°17'9 9.1
2014-Aug-22 21:33N 56°08' E 012°30'1010.1
2014-Aug-22 20:33N 55°60' E 012°41'10 9.6
2014-Aug-22 19:33N 55°51' E 012°45'1010.1
2014-Aug-22 18:33N 55°42' E 012°54'9 8.9
2014-Aug-22 17:33N 55°34' E 012°48'10 9.9
2014-Aug-22 16:33N 55°24' E 012°42'8 8.0
2014-Aug-22 15:33N 55°17' E 012°49'8 8.4
2014-Aug-22 14:33N 55°12' E 013°00'22 9.4
2014-Aug-22 12:10N 54°55' E 013°25'610.0
2014-Aug-22 11:33N 54°50' E 013°30'43 9.9
2014-Aug-22 07:15N 54°14' E 014°12'7 9.9
2014-Aug-22 06:33N 54°08' E 014°14'1010.0
2014-Aug-22 05:33N 53°58' E 014°16'7 7.4
2014-Aug-22 04:33N 53°50' E 014°18'  
Track history (hours):
 
Tides and Currents Weather Stations Pressure Air Temp Water Temp Dewpoint Dewpoint Depression Visibility Wind Speed Wind Dir Waves Ship Positions

Eems Servant

Last reported at 2014-Sep-01 04:13 UTC. Time now 2014-Sep-01 07:53 UTC.
Position N 51°53' E 005°26'.

Length 87 m; draft 3.5 m.

Type: Cargo ship. MMSI: 246236000.

Date/timePositionNaut miles runAvg speedWind from/ knotsBaromVisibWave heightAir tempDewpointWater temp
2014-Sep-01 04:13N 51°53' E 005°26'3 5.0
2014-Sep-01 03:33N 51°50' E 005°24'4 4.4
2014-Sep-01 02:33N 51°49' E 005°17'6 5.9
2014-Sep-01 01:33N 51°49' E 005°07'6 5.9
2014-Sep-01 00:33N 51°49' E 004°58'6 6.2
2014-Aug-31 23:33N 51°49' E 004°48'5 5.0
2014-Aug-31 22:33N 51°51' E 004°40'7 6.6
2014-Aug-31 21:33N 51°54' E 004°31'2 1.6
2014-Aug-31 20:33N 51°54' E 004°28'4 3.7
2014-Aug-31 19:33N 51°54' E 004°22'10 9.5
2014-Aug-31 18:33N 51°58' E 004°08'1010.0
2014-Aug-31 17:33N 52°01' E 003°53'5 4.7
2014-Aug-31 16:33N 52°04' E 003°47'8 8.3
2014-Aug-31 15:33N 52°12' E 003°47'9 8.7
2014-Aug-31 14:33N 52°21' E 003°49'10 8.3
2014-Aug-31 13:20N 52°31' E 003°51'8 9.5
2014-Aug-31 12:31N 52°38' E 003°54'1110.9
2014-Aug-31 11:30N 52°49' E 003°58'75 9.2
2014-Aug-31 03:17N 53°57' E 004°52'99 9.2
2014-Aug-30 16:31N 55°26' E 006°10'9 8.8
2014-Aug-30 15:33N 55°33' E 006°17'238 9.1
2014-Aug-29 13:27N 59°04' E 009°39'4 1.2
2014-Aug-29 10:31N 59°08' E 009°37'0 0.0
2014-Aug-29 09:04N 59°08' E 009°37'52 4.9
2014-Aug-28 22:33N 58°21' E 008°55'24 8.0
2014-Aug-28 19:33N 58°04' E 008°23'11 7.8
2014-Aug-28 18:08N 57°58' E 008°04'50 7.5
2014-Aug-28 11:25N 58°05' E 006°30'88 2.7
2014-Aug-27 03:09N 57°48' E 009°13'5 8.6
2014-Aug-27 02:33N 57°48' E 009°22'8 8.5
2014-Aug-27 01:33N 57°48' E 009°38'9 8.8
2014-Aug-27 00:33N 57°48' E 009°55'9 9.1
2014-Aug-26 23:33N 57°48' E 010°12'9 9.2
2014-Aug-26 22:33N 57°47' E 010°29'8 8.3
2014-Aug-26 21:33N 57°46' E 010°45'8 8.0
2014-Aug-26 20:33N 57°38' E 010°48'8 8.4
2014-Aug-26 19:33N 57°30' E 010°45'20 8.2
2014-Aug-26 17:08N 57°10' E 010°46'13 8.2
2014-Aug-26 15:30N 56°57' E 010°52'  
2014-Aug-22 23:33N 56°19' E 012°06'8 8.3
2014-Aug-22 22:33N 56°14' E 012°17'9 9.1
2014-Aug-22 21:33N 56°08' E 012°30'1010.1
2014-Aug-22 20:33N 55°60' E 012°41'10 9.6
2014-Aug-22 19:33N 55°51' E 012°45'1010.1
2014-Aug-22 18:33N 55°42' E 012°54'9 8.9
2014-Aug-22 17:33N 55°34' E 012°48'10 9.9
2014-Aug-22 16:33N 55°24' E 012°42'8 8.0
2014-Aug-22 15:33N 55°17' E 012°49'8 8.4
2014-Aug-22 14:33N 55°12' E 013°00'22 9.4
2014-Aug-22 12:10N 54°55' E 013°25'610.0
2014-Aug-22 11:33N 54°50' E 013°30'43 9.9
2014-Aug-22 07:15N 54°14' E 014°12'7 9.9
2014-Aug-22 06:33N 54°08' E 014°14'1010.0
2014-Aug-22 05:33N 53°58' E 014°16'7 7.4
2014-Aug-22 04:33N 53°50' E 014°18'  

Dump ship's entire track history